createdAt,value
2023-05-14T00:00:12.374Z,9.6181
2023-05-14T00:01:13.148Z,9.6278
2023-05-14T00:02:13.849Z,9.5960
2023-05-14T00:03:16.053Z,9.6195
2023-05-14T00:04:16.231Z,9.6253
2023-05-14T00:05:16.911Z,9.5915
2023-05-14T00:06:16.933Z,9.5684
2023-05-14T00:07:17.592Z,9.5416
2023-05-14T00:08:18.297Z,9.4947
2023-05-14T00:10:18.542Z,9.4968
2023-05-14T00:11:18.551Z,9.4890
2023-05-14T00:12:18.603Z,9.4490
2023-05-14T00:13:18.634Z,9.3941
2023-05-14T00:15:19.474Z,9.3345
2023-05-14T00:16:19.558Z,9.3508
2023-05-14T00:18:20.520Z,9.2943
2023-05-14T00:19:41.551Z,9.2594
2023-05-14T00:20:23.020Z,9.2317
2023-05-14T00:21:23.943Z,9.2142
2023-05-14T00:22:24.582Z,9.1836
2023-05-14T00:23:24.636Z,9.1555
2023-05-14T00:24:25.314Z,9.1674
2023-05-14T00:25:25.372Z,9.2059
2023-05-14T00:26:25.401Z,9.2475
2023-05-14T00:27:26.033Z,9.1725
2023-05-14T00:28:26.078Z,9.1034
2023-05-14T00:29:26.121Z,9.0952
2023-05-14T00:30:26.190Z,9.0536
2023-05-14T00:31:26.883Z,9.0352
2023-05-14T00:32:26.914Z,9.0433
2023-05-14T00:33:27.767Z,9.0938
2023-05-14T00:34:28.450Z,9.0346
2023-05-14T00:35:28.484Z,9.0107
2023-05-14T00:36:29.073Z,8.9298
2023-05-14T00:37:30.061Z,8.9749
2023-05-14T00:38:30.090Z,9.0426
2023-05-14T00:39:30.891Z,9.0292
2023-05-14T00:40:31.988Z,9.0977
2023-05-14T00:41:32.053Z,9.0848
2023-05-14T00:42:32.697Z,9.0425
2023-05-14T00:43:33.650Z,8.9699
2023-05-14T00:45:36.901Z,8.9409
2023-05-14T00:46:37.883Z,8.9665
2023-05-14T00:47:37.947Z,9.0218
2023-05-14T00:48:38.767Z,9.0384
2023-05-14T00:49:38.742Z,9.0357
2023-05-14T00:50:39.472Z,9.0158
2023-05-14T00:51:40.612Z,9.0049
2023-05-14T00:52:41.344Z,8.9794
2023-05-14T00:53:41.404Z,8.9139
2023-05-14T00:54:41.430Z,8.9671
2023-05-14T00:55:41.495Z,9.0479
2023-05-14T00:56:42.077Z,8.9987
2023-05-14T00:57:43.029Z,8.9751
2023-05-14T00:58:43.061Z,8.9961
2023-05-14T00:59:43.138Z,9.0530
2023-05-14T01:00:43.267Z,9.0886
2023-05-14T01:01:43.957Z,9.1313
2023-05-14T01:02:44.065Z,9.1136
2023-05-14T01:03:44.245Z,9.1216
2023-05-14T01:04:44.968Z,9.1334
2023-05-14T01:05:44.985Z,9.1413
2023-05-14T01:06:45.664Z,9.1497
2023-05-14T01:07:46.334Z,9.1578
2023-05-14T01:08:47.057Z,9.1597
2023-05-14T01:09:47.101Z,9.1396
2023-05-14T01:10:47.155Z,9.1938
2023-05-14T01:11:47.864Z,9.1758
2023-05-14T01:12:47.908Z,9.1189
2023-05-14T01:13:48.993Z,9.1210
2023-05-14T01:14:49.930Z,9.0796
2023-05-14T01:15:49.954Z,9.0352
2023-05-14T01:16:50.081Z,9.0580
2023-05-14T01:17:50.158Z,9.0738
2023-05-14T01:18:50.266Z,9.0580
2023-05-14T01:19:50.341Z,9.1055
2023-05-14T01:20:50.384Z,9.1591
2023-05-14T01:21:50.427Z,9.1566
2023-05-14T01:22:50.452Z,9.1481
2023-05-14T01:23:50.523Z,9.1731
2023-05-14T01:24:50.558Z,9.1795
2023-05-14T01:25:50.578Z,9.1569
2023-05-14T01:26:50.626Z,9.1317
2023-05-14T01:27:51.006Z,9.1177
2023-05-14T01:28:51.104Z,9.1023
2023-05-14T01:29:51.114Z,9.0723
2023-05-14T01:30:51.774Z,9.0505
2023-05-14T01:31:51.833Z,9.0390
2023-05-14T01:32:52.482Z,9.0495
2023-05-14T01:33:53.307Z,9.0345
2023-05-14T01:34:53.612Z,9.0729
2023-05-14T01:35:54.356Z,9.0782
2023-05-14T01:36:54.699Z,9.0916
2023-05-14T01:37:54.739Z,9.1151
2023-05-14T01:38:55.926Z,9.1078
2023-05-14T01:39:55.998Z,9.0947
2023-05-14T01:40:56.426Z,9.0844
2023-05-14T01:41:57.187Z,9.0761
2023-05-14T01:42:57.253Z,9.0680
2023-05-14T01:43:58.066Z,9.0477
2023-05-14T01:44:58.764Z,9.0292
2023-05-14T01:45:58.816Z,9.0489
2023-05-14T01:46:59.492Z,9.0573
2023-05-14T01:48:00.796Z,9.0437
2023-05-14T01:49:00.856Z,9.0312
2023-05-14T01:50:01.491Z,9.0424
2023-05-14T01:51:01.692Z,9.0066
2023-05-14T01:53:02.982Z,9.0201
2023-05-14T01:54:03.008Z,9.0161
2023-05-14T01:55:03.691Z,8.9925
2023-05-14T01:56:04.302Z,8.9944
2023-05-14T01:57:05.063Z,8.9968
2023-05-14T01:58:06.556Z,9.0163
2023-05-14T01:59:06.597Z,9.0066
2023-05-14T02:00:07.258Z,8.9987
2023-05-14T02:01:08.603Z,8.9829
2023-05-14T02:07:13.546Z,8.8736
2023-05-14T02:08:13.583Z,8.8791
2023-05-14T02:09:13.612Z,8.8881
2023-05-14T02:10:14.243Z,8.8834
2023-05-14T02:11:14.280Z,8.8705
2023-05-14T02:13:15.142Z,8.9205
2023-05-14T02:14:16.276Z,8.9141
2023-05-14T02:19:23.936Z,8.8576
2023-05-14T02:20:24.624Z,8.8417
2023-05-14T02:21:25.189Z,8.8363
2023-05-14T02:22:26.039Z,8.8621
2023-05-14T02:23:37.983Z,8.8246
2023-05-14T02:24:26.703Z,8.8131
2023-05-14T02:25:27.548Z,8.8063
2023-05-14T02:26:28.218Z,8.8106
2023-05-14T02:27:28.671Z,8.7926
2023-05-14T02:28:29.322Z,8.7746
2023-05-14T02:29:29.424Z,8.7656
2023-05-14T02:30:29.817Z,8.8352
2023-05-14T02:31:30.898Z,8.8479
2023-05-14T02:32:31.250Z,8.7820
2023-05-14T02:33:32.452Z,8.7887
2023-05-14T02:34:33.484Z,8.8012
2023-05-14T02:35:33.559Z,8.8256
2023-05-14T02:36:34.404Z,8.8018
2023-05-14T02:37:35.630Z,8.7688
2023-05-14T02:38:35.692Z,8.7265
2023-05-14T02:39:36.361Z,8.7106
2023-05-14T02:40:36.504Z,8.7202
2023-05-14T02:41:37.933Z,8.6963
2023-05-14T02:42:38.856Z,8.6486
2023-05-14T02:43:38.911Z,8.6287
2023-05-14T02:44:40.416Z,8.5632
2023-05-14T02:45:41.169Z,8.5982
2023-05-14T02:46:41.616Z,8.5743
2023-05-14T02:47:42.607Z,8.5308
2023-05-14T02:48:43.785Z,8.4707
2023-05-14T02:49:43.835Z,8.4578
2023-05-14T02:50:44.703Z,8.4812
2023-05-14T02:51:44.968Z,8.4472
2023-05-14T02:52:45.109Z,8.4446
2023-05-14T02:53:45.344Z,8.4752
2023-05-14T02:54:46.420Z,8.4941
2023-05-14T02:55:46.513Z,8.4661
2023-05-14T02:56:47.375Z,8.4471
2023-05-14T02:57:47.633Z,8.4254
2023-05-14T02:59:48.268Z,8.4796
2023-05-14T03:00:48.854Z,8.4680
2023-05-14T03:01:50.400Z,8.4906
2023-05-14T03:02:51.124Z,8.5050
2023-05-14T03:03:51.883Z,8.5191
2023-05-14T03:04:52.717Z,8.5125
2023-05-14T03:05:52.927Z,8.5020
2023-05-14T03:06:53.575Z,8.5186
2023-05-14T03:07:54.526Z,8.5161
2023-05-14T03:08:54.754Z,8.4824
2023-05-14T03:09:55.512Z,8.5015
2023-05-14T03:10:56.327Z,8.5122
2023-05-14T03:11:56.779Z,8.5164
2023-05-14T03:12:57.638Z,8.5469
2023-05-14T03:13:57.693Z,8.5414
2023-05-14T03:14:58.998Z,8.5559
2023-05-14T03:15:59.939Z,8.5723
2023-05-14T03:17:00.841Z,8.5617
2023-05-14T03:18:01.123Z,8.5394
2023-05-14T03:19:01.322Z,8.5236
2023-05-14T03:20:01.968Z,8.4974
2023-05-14T03:21:02.824Z,8.5125
2023-05-14T03:22:02.882Z,8.5231
2023-05-14T03:23:03.139Z,8.4810
2023-05-14T03:24:03.375Z,8.4752
2023-05-14T03:25:04.249Z,8.3961
2023-05-14T03:26:04.576Z,8.4028
2023-05-14T03:27:04.638Z,8.3727
2023-05-14T03:28:05.461Z,8.3007
2023-05-14T03:29:05.516Z,8.3137
2023-05-14T03:30:06.770Z,8.2629
2023-05-14T03:31:07.569Z,8.1938
2023-05-14T03:32:08.279Z,8.1290
2023-05-14T03:33:09.108Z,8.0878
2023-05-14T03:34:09.205Z,8.0991
2023-05-14T03:35:10.782Z,8.0710
2023-05-14T03:36:11.754Z,8.0591
2023-05-14T03:38:13.236Z,7.9601
2023-05-14T03:39:13.713Z,7.9237
2023-05-14T03:40:14.969Z,7.9299
2023-05-14T03:41:16.007Z,7.9367
2023-05-14T03:42:16.889Z,7.8984
2023-05-14T03:43:17.005Z,7.9582
2023-05-14T03:44:17.965Z,8.0279
2023-05-14T03:45:19.574Z,8.0373
2023-05-14T03:46:21.521Z,8.0280
2023-05-14T03:48:25.359Z,7.9601
2023-05-14T03:49:25.491Z,7.9186
2023-05-14T03:50:26.347Z,7.9728
2023-05-14T03:51:27.113Z,7.9648
2023-05-14T03:52:27.155Z,7.9541
2023-05-14T03:53:27.887Z,7.9512
2023-05-14T03:54:28.499Z,7.9536
2023-05-14T03:55:28.603Z,7.9459
2023-05-14T03:56:29.768Z,7.9940
2023-05-14T03:57:30.411Z,7.9626
2023-05-14T03:58:30.501Z,7.9966
2023-05-14T03:59:31.841Z,8.0211
2023-05-14T04:00:32.932Z,8.0893
2023-05-14T04:01:32.999Z,8.1289
2023-05-14T04:02:33.805Z,8.1534
2023-05-14T04:03:34.094Z,8.1820
2023-05-14T04:04:35.447Z,8.1836
2023-05-14T04:05:35.554Z,8.1774
2023-05-14T04:06:35.624Z,8.1902
2023-05-14T04:07:36.405Z,8.2232
2023-05-14T04:08:37.237Z,8.2491
2023-05-14T04:09:37.961Z,8.2493
2023-05-14T04:10:38.071Z,8.2911
2023-05-14T04:11:38.145Z,8.3160
2023-05-14T04:12:38.906Z,8.3390
2023-05-14T04:13:39.461Z,8.3919
2023-05-14T04:14:39.553Z,8.4431
2023-05-14T04:15:40.558Z,8.4402
2023-05-14T04:16:40.750Z,8.4511
2023-05-14T04:17:41.249Z,8.4637
2023-05-14T04:18:41.984Z,8.4952
2023-05-14T04:19:42.738Z,8.5454
2023-05-14T04:25:47.636Z,8.7222
2023-05-14T04:26:48.467Z,8.7422
2023-05-14T04:27:49.145Z,8.7271
2023-05-14T04:28:49.227Z,8.7525
2023-05-14T04:29:49.953Z,8.7856
2023-05-14T04:30:50.850Z,8.8193
2023-05-14T04:31:50.962Z,8.8596
2023-05-14T04:32:51.697Z,8.8858
2023-05-14T04:33:51.778Z,8.8977
2023-05-14T04:34:52.458Z,8.9354
2023-05-14T04:35:52.596Z,8.9324
2023-05-14T04:36:53.346Z,8.9058
2023-05-14T04:37:54.193Z,8.9161
2023-05-14T04:38:54.843Z,8.9625
2023-05-14T04:39:55.730Z,8.9894
2023-05-14T04:40:56.475Z,8.9846
2023-05-14T04:41:56.571Z,8.9859
2023-05-14T04:42:57.249Z,9.0035
2023-05-14T04:43:57.932Z,8.9922
2023-05-14T04:44:57.994Z,9.0390
2023-05-14T04:45:58.962Z,9.0500
2023-05-14T04:46:59.714Z,9.0885
2023-05-14T04:47:59.836Z,9.1172
2023-05-14T04:49:00.611Z,9.1287
2023-05-14T04:50:00.689Z,9.1567
2023-05-14T04:57:07.497Z,9.5568
2023-05-14T04:58:07.625Z,9.5921
2023-05-14T04:59:07.959Z,9.5197
2023-05-14T05:00:08.060Z,9.5724
2023-05-14T05:01:08.251Z,9.5769
2023-05-14T05:02:08.322Z,9.6143
2023-05-14T05:03:09.086Z,9.7563
2023-05-14T05:04:09.358Z,9.8300
2023-05-14T05:05:09.941Z,9.8528
2023-05-14T05:06:10.905Z,9.8551
2023-05-14T05:07:10.978Z,9.8713
2023-05-14T05:08:11.745Z,9.7048
2023-05-14T05:09:12.523Z,9.7109
2023-05-14T05:11:16.133Z,9.8222
2023-05-14T05:12:16.897Z,9.8015
2023-05-14T05:13:18.267Z,9.7834
2023-05-14T05:14:18.356Z,9.8182
2023-05-14T05:15:18.419Z,9.8385
2023-05-14T05:16:18.694Z,9.8244
2023-05-14T05:17:18.789Z,9.7638
2023-05-14T05:18:18.878Z,9.6740
2023-05-14T05:19:20.844Z,9.6874
2023-05-14T05:20:19.797Z,9.7915
2023-05-14T05:21:20.363Z,9.9355
2023-05-14T05:22:20.420Z,9.8770
2023-05-14T05:23:21.645Z,9.9465
2023-05-14T05:24:22.382Z,9.9856
2023-05-14T05:25:23.776Z,10.1117
2023-05-14T05:26:23.842Z,10.0435
2023-05-14T05:27:24.542Z,10.0924
2023-05-14T05:28:24.709Z,10.1039
2023-05-14T05:29:25.373Z,10.0821
2023-05-14T05:30:26.254Z,10.1855
2023-05-14T05:31:26.457Z,10.0715
2023-05-14T05:32:27.234Z,10.0814
2023-05-14T05:33:27.286Z,10.1261
2023-05-14T05:34:28.075Z,10.1325
2023-05-14T05:35:28.973Z,10.2577
2023-05-14T05:36:29.079Z,10.3591
2023-05-14T05:37:30.087Z,10.7316
2023-05-14T05:38:30.189Z,10.6488
2023-05-14T05:39:30.266Z,10.3877
2023-05-14T05:40:30.402Z,10.2765
2023-05-14T05:41:30.460Z,10.2902
2023-05-14T05:42:30.866Z,10.2899
2023-05-14T05:43:31.000Z,10.3043
2023-05-14T05:44:31.107Z,10.2706
2023-05-14T05:45:31.793Z,10.3196
2023-05-14T05:46:31.950Z,10.3205
2023-05-14T05:47:32.654Z,10.2140
2023-05-14T05:48:33.309Z,10.3553
2023-05-14T05:49:33.599Z,10.5186
2023-05-14T05:50:34.329Z,10.6129
2023-05-14T05:51:35.070Z,10.7965
2023-05-14T05:52:35.777Z,10.8587
2023-05-14T05:53:35.865Z,10.8362
2023-05-14T05:54:36.627Z,10.9719
2023-05-14T05:55:37.468Z,11.1127
2023-05-14T05:56:37.553Z,11.1848
2023-05-14T05:57:37.641Z,11.3214
2023-05-14T05:58:37.980Z,11.2517
2023-05-14T05:59:38.090Z,11.3785
2023-05-14T06:00:39.076Z,11.3104
2023-05-14T06:01:40.286Z,11.5146
2023-05-14T06:03:45.268Z,11.2154
2023-05-14T06:04:44.990Z,11.1161
2023-05-14T06:05:45.210Z,11.1469
2023-05-14T06:06:45.958Z,11.1831
2023-05-14T06:07:46.692Z,11.1701
2023-05-14T06:09:46.895Z,10.6867
2023-05-14T06:10:47.634Z,10.6853
2023-05-14T06:27:15.538Z,10.3960
2023-05-14T06:28:16.231Z,10.3838
2023-05-14T06:29:17.034Z,10.3557
2023-05-14T06:31:20.477Z,10.3350
2023-05-14T06:32:21.403Z,10.3009
2023-05-14T06:33:21.586Z,10.5047
2023-05-14T06:34:22.282Z,10.5928
2023-05-14T06:35:23.002Z,10.6906
2023-05-14T06:38:26.354Z,10.8469
2023-05-14T06:39:27.021Z,10.9499
2023-05-14T06:40:27.786Z,10.7993
2023-05-14T06:41:27.848Z,10.7659
2023-05-14T06:42:27.941Z,10.7451
2023-05-14T06:43:45.739Z,10.7432
2023-05-14T06:44:29.610Z,10.8022
2023-05-14T06:45:33.189Z,10.6835
2023-05-14T06:46:33.415Z,10.6348
2023-05-14T06:47:34.267Z,10.7025
2023-05-14T06:48:35.174Z,10.6141
2023-05-14T06:50:35.806Z,10.9340
2023-05-14T06:52:37.487Z,10.9423
2023-05-14T07:03:11.796Z,11.2970
2023-05-14T07:03:53.650Z,11.1470
2023-05-14T07:04:54.187Z,11.2735
2023-05-14T07:05:54.382Z,11.2999
2023-05-14T07:06:55.078Z,11.1557
2023-05-14T07:07:55.220Z,10.8721
2023-05-14T07:08:55.897Z,10.8301
2023-05-14T07:09:56.678Z,10.8275
2023-05-14T07:10:56.759Z,10.8272
2023-05-14T07:11:56.840Z,10.9385
2023-05-14T07:12:57.514Z,10.8254
2023-05-14T07:13:58.249Z,10.8170
2023-05-14T07:14:58.367Z,10.8091
2023-05-14T07:15:58.466Z,10.6813
2023-05-14T07:16:58.639Z,10.8093
2023-05-14T07:17:59.423Z,10.8873
2023-05-14T07:18:59.557Z,11.0027
2023-05-14T07:20:00.294Z,11.1342
2023-05-14T07:21:00.427Z,10.8819
2023-05-14T07:22:01.155Z,10.9293
2023-05-14T07:23:01.233Z,10.8788
2023-05-14T07:24:01.315Z,10.8917
2023-05-14T07:25:02.123Z,11.0670
2023-05-14T07:26:02.209Z,11.1085
2023-05-14T07:27:03.009Z,10.9367
2023-05-14T07:28:03.739Z,11.0478
2023-05-14T07:29:04.594Z,11.2360
2023-05-14T07:31:05.947Z,11.7209
2023-05-14T07:32:06.034Z,11.6708
2023-05-14T07:33:06.813Z,11.6780
2023-05-14T07:34:07.707Z,11.9368
2023-05-14T07:35:07.830Z,12.3985
2023-05-14T07:36:08.546Z,12.8272
2023-05-14T07:37:08.626Z,12.7678
2023-05-14T07:38:09.422Z,12.3800
2023-05-14T07:39:09.512Z,12.5237
2023-05-14T07:40:10.290Z,12.2563
2023-05-14T07:41:10.409Z,12.1672
2023-05-14T07:42:10.448Z,11.8214
2023-05-14T07:43:10.544Z,11.9858
2023-05-14T07:44:10.640Z,12.1666
2023-05-14T07:45:10.932Z,12.0749
2023-05-14T07:46:11.105Z,12.6677
2023-05-14T07:47:11.704Z,13.0338
2023-05-14T07:48:12.186Z,13.7334
2023-05-14T07:49:13.092Z,13.4109
2023-05-14T07:50:14.341Z,14.0080
2023-05-14T07:51:16.186Z,13.8651
2023-05-14T07:52:23.281Z,14.3402
2023-05-14T08:00:28.678Z,14.9827
2023-05-14T08:01:28.870Z,15.0672
2023-05-14T08:02:29.016Z,13.9249
2023-05-14T08:03:42.442Z,13.4519
2023-05-14T08:04:31.708Z,13.3284
2023-05-14T08:05:31.786Z,13.7733
2023-05-14T08:06:32.517Z,14.3939
2023-05-14T08:07:35.159Z,14.8156
2023-05-14T08:08:35.259Z,15.0547
2023-05-14T08:09:35.336Z,14.2154
2023-05-14T08:10:36.187Z,14.4484
2023-05-14T08:11:36.332Z,14.9307
2023-05-14T08:12:36.444Z,14.4100
2023-05-14T08:13:37.206Z,14.6195
2023-05-14T08:14:38.063Z,14.5570
2023-05-14T08:15:38.155Z,14.4693
2023-05-14T08:16:38.887Z,15.1146
2023-05-14T08:17:39.045Z,14.9015
2023-05-14T08:19:40.555Z,13.4717
2023-05-14T08:20:40.640Z,13.4074
2023-05-14T08:21:41.484Z,14.2211
2023-05-14T08:22:41.578Z,14.6556
2023-05-14T08:23:42.554Z,14.9586
2023-05-14T08:24:42.654Z,14.8694
2023-05-14T08:25:42.802Z,15.2367
2023-05-14T08:26:42.866Z,13.8068
2023-05-14T08:27:42.983Z,13.6944
2023-05-14T08:28:43.931Z,13.4085
2023-05-14T08:29:44.030Z,12.9532
2023-05-14T08:30:44.801Z,12.9589
2023-05-14T08:31:44.875Z,13.0385
2023-05-14T08:32:45.579Z,13.0520
2023-05-14T08:33:47.035Z,13.1093
2023-05-14T08:34:48.510Z,13.3134
2023-05-14T08:35:49.252Z,13.2907
2023-05-14T08:36:53.667Z,13.4194
2023-05-14T08:40:54.148Z,13.3020
2023-05-14T08:41:55.161Z,13.7126
2023-05-14T08:42:55.497Z,13.8555
2023-05-14T08:43:56.504Z,13.6176
2023-05-14T08:44:56.840Z,13.9167
2023-05-14T08:45:57.664Z,13.6932
2023-05-14T08:46:58.555Z,13.8922
2023-05-14T08:47:59.656Z,13.8105
2023-05-14T08:49:00.579Z,13.9424
2023-05-14T08:50:01.559Z,13.6018
2023-05-14T08:51:02.149Z,13.4609
2023-05-14T08:52:03.603Z,13.5928
2023-05-14T08:53:03.748Z,14.0071
2023-05-14T08:54:05.585Z,14.2295
2023-05-14T08:55:06.607Z,14.8201
2023-05-14T08:56:07.013Z,15.2265
2023-05-14T08:57:07.157Z,15.1437
2023-05-14T08:58:20.974Z,14.9597
2023-05-14T08:59:21.082Z,14.3194
2023-05-14T09:00:21.316Z,14.5982
2023-05-14T09:01:21.734Z,15.6094
2023-05-14T09:02:22.847Z,16.1048
2023-05-14T09:03:23.349Z,15.8329
2023-05-14T09:04:23.544Z,15.6999
2023-05-14T09:05:24.482Z,15.8951
2023-05-14T09:06:24.765Z,17.4804
2023-05-14T09:07:25.273Z,16.0622
2023-05-14T09:08:28.866Z,16.5062
2023-05-14T09:13:32.857Z,15.2556
2023-05-14T09:14:33.006Z,15.8433
2023-05-14T09:15:33.964Z,15.3510
2023-05-14T09:16:34.747Z,15.5753
2023-05-14T09:17:35.426Z,15.2904
2023-05-14T09:18:36.223Z,15.5305
2023-05-14T09:19:36.327Z,15.3504
2023-05-14T09:20:37.074Z,14.3369
2023-05-14T09:21:37.203Z,14.2098
2023-05-14T09:22:58.334Z,13.7398
2023-05-14T09:23:40.532Z,13.6967
2023-05-14T09:24:41.022Z,13.5105
2023-05-14T09:25:41.869Z,13.5757
2023-05-14T09:26:41.994Z,13.8994
2023-05-14T09:27:42.118Z,13.5875
2023-05-14T09:28:42.236Z,13.5677
2023-05-14T09:29:42.406Z,13.7860
2023-05-14T09:30:42.558Z,13.6715
2023-05-14T09:31:43.501Z,13.3903
2023-05-14T09:32:44.399Z,13.2871
2023-05-14T09:33:44.889Z,13.2810
2023-05-14T09:34:45.466Z,13.3108
2023-05-14T09:35:45.661Z,13.4360
2023-05-14T09:36:46.378Z,13.7009
2023-05-14T09:37:46.673Z,13.8242
2023-05-14T09:38:46.935Z,14.0510
2023-05-14T09:39:47.831Z,13.9763
2023-05-14T09:40:48.181Z,13.9075
2023-05-14T09:41:48.302Z,14.7259
2023-05-14T09:42:48.990Z,14.6101
2023-05-14T09:43:49.922Z,14.5987
2023-05-14T09:45:50.709Z,14.7089
2023-05-14T09:46:51.458Z,14.6408
2023-05-14T09:48:51.962Z,14.5761
2023-05-14T09:49:52.095Z,14.5151
2023-05-14T09:50:52.426Z,14.6565
2023-05-14T09:51:53.299Z,14.8706
2023-05-14T09:52:54.120Z,14.5378
2023-05-14T09:53:54.466Z,14.2902
2023-05-14T09:54:55.454Z,14.8291
2023-05-14T09:55:55.663Z,15.1519
2023-05-14T09:56:55.962Z,14.3785
2023-05-14T09:57:57.150Z,14.2449
2023-05-14T09:58:57.274Z,14.0524
2023-05-14T09:59:57.453Z,13.7350
2023-05-14T10:00:57.711Z,13.8568
2023-05-14T10:01:57.884Z,13.4929
2023-05-14T10:02:58.023Z,13.3401
2023-05-14T10:04:02.562Z,13.6059
2023-05-14T10:10:08.921Z,13.7570
2023-05-14T10:11:09.047Z,13.5959
2023-05-14T10:12:09.696Z,13.7620
2023-05-14T10:13:10.263Z,13.8937
2023-05-14T10:14:11.596Z,13.8026
2023-05-14T10:15:12.328Z,14.4791
2023-05-14T10:16:12.927Z,13.8562
2023-05-14T10:17:13.188Z,14.0979
2023-05-14T10:18:13.355Z,14.1251
2023-05-14T10:19:14.020Z,13.8655
2023-05-14T10:20:14.177Z,13.9647
2023-05-14T10:21:14.287Z,13.8665
2023-05-14T10:22:14.959Z,14.1369
2023-05-14T10:23:16.284Z,14.0865
2023-05-14T10:24:16.440Z,13.6858
2023-05-14T10:25:16.561Z,13.9081
2023-05-14T10:26:17.596Z,14.1415
2023-05-14T10:27:17.736Z,14.8827
2023-05-14T10:28:17.900Z,14.7748
2023-05-14T10:29:18.054Z,15.0062
2023-05-14T10:30:18.200Z,14.5979
2023-05-14T10:31:18.414Z,14.4086
2023-05-14T10:32:18.621Z,13.9720
2023-05-14T10:33:18.868Z,14.0275
2023-05-14T10:34:19.056Z,14.4187
2023-05-14T10:35:20.009Z,14.0493
2023-05-14T10:36:20.136Z,13.6155
2023-05-14T10:37:20.673Z,13.8701
2023-05-14T10:38:20.771Z,13.6737
2023-05-14T10:39:21.869Z,14.1200
2023-05-14T10:40:22.927Z,14.0945
2023-05-14T10:41:23.382Z,13.9425
2023-05-14T10:42:23.561Z,13.9782
2023-05-14T10:43:23.638Z,13.8770
2023-05-14T10:44:23.872Z,14.2280
2023-05-14T10:45:24.421Z,14.3141
2023-05-14T10:46:24.655Z,14.3334
2023-05-14T10:47:24.794Z,14.4978
2023-05-14T10:48:25.080Z,14.1897
2023-05-14T10:49:39.718Z,14.2079
2023-05-14T10:50:26.972Z,14.1960
2023-05-14T10:51:27.786Z,14.6027
2023-05-14T10:52:27.914Z,15.0215
2023-05-14T10:53:28.015Z,14.8029
2023-05-14T10:54:29.126Z,14.8585
2023-05-14T10:55:29.316Z,15.3481
2023-05-14T10:56:29.434Z,15.0019
2023-05-14T10:57:30.260Z,14.8884
2023-05-14T10:58:30.420Z,14.7565
2023-05-14T10:59:31.190Z,14.7175
2023-05-14T11:00:31.359Z,14.5895
2023-05-14T11:01:31.494Z,14.7286
2023-05-14T11:02:32.263Z,14.7900
2023-05-14T11:03:33.125Z,14.4957
2023-05-14T11:04:33.425Z,14.8214
2023-05-14T11:05:33.541Z,15.1960
2023-05-14T11:06:33.682Z,15.7034
2023-05-14T11:07:33.787Z,15.3287
2023-05-14T11:08:33.948Z,16.2092
2023-05-14T11:09:34.685Z,17.9685
2023-05-14T11:10:34.889Z,17.8779
2023-05-14T11:11:35.716Z,17.6733
2023-05-14T11:12:35.871Z,17.9605
2023-05-14T11:13:36.002Z,17.6235
2023-05-14T11:14:36.140Z,16.6095
2023-05-14T11:15:36.344Z,17.3996
2023-05-14T11:16:37.185Z,17.0577
2023-05-14T11:17:37.405Z,16.7382
2023-05-14T11:18:38.274Z,16.5378
2023-05-14T11:19:38.395Z,16.2544
2023-05-14T11:20:38.520Z,15.9998
2023-05-14T11:21:39.527Z,15.1333
2023-05-14T11:22:39.681Z,14.6635
2023-05-14T11:23:40.003Z,14.0564
2023-05-14T11:24:40.191Z,14.2327
2023-05-14T11:25:40.803Z,14.1426
2023-05-14T11:26:41.011Z,13.9321
2023-05-14T11:27:41.813Z,14.0570
2023-05-14T11:28:41.949Z,14.0762
2023-05-14T11:29:42.734Z,14.0526
2023-05-14T11:30:43.755Z,14.1625
2023-05-14T11:33:48.005Z,14.2920
2023-05-14T11:34:48.147Z,14.3519
2023-05-14T11:35:48.302Z,13.9861
2023-05-14T11:36:48.454Z,14.0524
2023-05-14T11:37:50.898Z,14.2582
2023-05-14T11:38:51.054Z,14.1376
2023-05-14T11:39:58.359Z,14.2808
2023-05-14T11:42:10.508Z,15.0342
2023-05-14T11:42:59.144Z,14.6987
2023-05-14T11:43:59.992Z,14.6508
2023-05-14T11:45:00.755Z,14.8861
2023-05-14T11:46:00.960Z,15.3358
2023-05-14T11:47:01.793Z,14.8013
2023-05-14T11:48:01.946Z,15.1084
2023-05-14T11:49:02.723Z,14.8859
2023-05-14T11:50:19.972Z,14.6142
2023-05-14T11:51:42.306Z,14.5057
2023-05-14T11:52:43.341Z,14.1961
2023-05-14T11:53:44.797Z,14.7569
2023-05-14T11:54:45.334Z,14.7488
2023-05-14T11:55:45.674Z,14.8225
2023-05-14T11:57:03.262Z,15.0455
2023-05-14T11:57:47.835Z,15.2189
2023-05-14T11:58:48.623Z,15.2588
2023-05-14T11:59:48.767Z,15.3322
2023-05-14T12:00:50.053Z,15.3269
2023-05-14T12:01:50.993Z,15.6690
2023-05-14T12:02:51.214Z,15.7962
2023-05-14T12:03:52.325Z,16.2543
2023-05-14T12:04:53.831Z,16.4473
2023-05-14T12:05:54.602Z,15.9027
2023-05-14T12:06:54.948Z,15.2009
2023-05-14T12:07:55.496Z,14.8898
2023-05-14T12:08:55.948Z,14.6226
2023-05-14T12:09:56.169Z,14.0012
2023-05-14T12:10:56.447Z,13.5710
2023-05-14T12:11:56.906Z,13.2638
2023-05-14T12:12:57.314Z,12.9579
2023-05-14T12:13:57.709Z,12.5926
2023-05-14T12:14:58.050Z,12.5532
2023-05-14T12:15:58.262Z,12.4831
2023-05-14T12:16:58.645Z,12.4356
2023-05-14T12:18:59.550Z,12.2277
2023-05-14T12:19:59.737Z,12.2230
2023-05-14T12:21:01.497Z,12.1714
2023-05-14T12:22:02.291Z,12.1085
2023-05-14T12:23:02.406Z,12.0222
2023-05-14T12:24:03.345Z,11.9480
2023-05-14T12:25:04.377Z,11.9334
2023-05-14T12:26:04.572Z,12.0050
2023-05-14T12:27:05.635Z,12.0964
2023-05-14T12:28:05.979Z,12.1330
2023-05-14T12:29:06.331Z,12.0021
2023-05-14T12:31:07.389Z,11.9874
2023-05-14T12:32:08.842Z,12.0618
2023-05-14T12:33:09.710Z,12.0035
2023-05-14T12:34:09.856Z,11.9743
2023-05-14T12:35:10.631Z,11.9281
2023-05-14T12:36:21.188Z,11.8867
2023-05-14T12:37:13.912Z,11.8793
2023-05-14T12:38:15.020Z,11.9342
2023-05-14T12:39:15.466Z,12.0002
2023-05-14T12:40:15.625Z,12.0898
2023-05-14T12:41:15.960Z,12.0972
2023-05-14T12:42:17.652Z,11.9960
2023-05-14T12:43:17.818Z,12.1164
2023-05-14T12:44:17.951Z,12.0142
2023-05-14T12:45:18.068Z,12.1432
2023-05-14T12:46:18.193Z,12.0394
2023-05-14T12:47:18.423Z,12.1981
2023-05-14T12:48:18.574Z,12.0778
2023-05-14T12:49:18.728Z,12.3827
2023-05-14T12:50:19.496Z,12.3985
2023-05-14T12:52:36.124Z,12.0998
2023-05-14T12:53:24.047Z,12.1847
2023-05-14T13:03:38.265Z,12.6991
2023-05-14T13:04:38.659Z,12.5343
2023-05-14T13:05:41.422Z,12.3997
2023-05-14T13:09:44.265Z,12.7115
2023-05-14T13:10:44.421Z,12.8936
2023-05-14T13:11:44.563Z,13.2056
2023-05-14T13:12:44.692Z,13.3836
2023-05-14T13:13:44.834Z,13.2804
2023-05-14T13:14:44.982Z,13.1700
2023-05-14T13:15:45.182Z,13.4712
2023-05-14T13:16:45.408Z,13.5866
2023-05-14T13:17:45.682Z,13.8190
2023-05-14T13:18:45.846Z,13.4382
2023-05-14T13:19:45.968Z,13.3157
2023-05-14T13:20:46.127Z,13.0782
2023-05-14T13:21:46.272Z,13.1339
2023-05-14T13:22:46.392Z,13.5809
2023-05-14T13:23:46.532Z,13.6393
2023-05-14T13:24:46.887Z,13.4711
2023-05-14T13:25:49.671Z,13.7521
2023-05-14T13:26:47.351Z,14.0748
2023-05-14T13:27:47.503Z,13.5623
2023-05-14T13:28:47.703Z,13.6586
2023-05-14T13:30:49.049Z,13.9854
2023-05-14T13:31:49.181Z,14.3358
2023-05-14T13:33:50.168Z,13.8629
2023-05-14T13:34:50.338Z,14.1290
2023-05-14T13:35:51.288Z,14.6403
2023-05-14T13:36:52.471Z,14.8095
2023-05-14T13:37:53.973Z,14.7399
2023-05-14T13:38:55.594Z,14.7414
2023-05-14T13:39:56.012Z,14.7242
2023-05-14T13:40:56.389Z,14.3972
2023-05-14T13:41:56.598Z,14.5401
2023-05-14T13:42:57.525Z,14.4231
2023-05-14T13:43:58.308Z,14.5736
2023-05-14T13:44:58.477Z,14.6089
2023-05-14T13:45:58.727Z,14.7713
2023-05-14T13:46:58.916Z,15.1347
2023-05-14T13:47:59.115Z,14.9666
2023-05-14T13:48:59.323Z,14.9602
2023-05-14T13:51:00.188Z,15.0548
2023-05-14T13:52:00.359Z,14.7435
2023-05-14T13:53:01.398Z,14.6413
2023-05-14T13:54:02.223Z,14.9065
2023-05-14T13:55:02.385Z,14.9166
2023-05-14T13:56:03.234Z,14.7677
2023-05-14T13:57:03.470Z,15.0179
2023-05-14T13:58:04.070Z,15.3373
2023-05-14T13:59:04.845Z,15.2310
2023-05-14T14:00:05.751Z,15.3863
2023-05-14T14:01:05.933Z,15.2376
2023-05-14T14:02:06.701Z,15.9498
2023-05-14T14:03:07.701Z,16.4029
2023-05-14T14:04:08.695Z,16.5306
2023-05-14T14:05:08.971Z,16.8772
2023-05-14T14:06:09.840Z,17.0018
2023-05-14T14:07:10.046Z,17.3036
2023-05-14T14:09:10.604Z,17.2058
2023-05-14T14:10:11.543Z,16.2754